createdAt,value
2022-08-05T00:01:27.712Z,4.20
2022-08-05T00:06:33.353Z,4.50
2022-08-05T00:11:49.229Z,4.40
2022-08-05T00:16:58.427Z,4.20
2022-08-05T00:22:02.265Z,4.30
2022-08-05T00:27:10.416Z,4.20
2022-08-05T00:32:16.771Z,4.30
2022-08-05T00:37:19.734Z,4.00
2022-08-05T00:42:36.721Z,3.70
2022-08-05T00:47:57.214Z,4.10
2022-08-05T00:53:03.638Z,3.80
2022-08-05T00:58:17.014Z,4.10
2022-08-05T01:03:23.498Z,4.10
2022-08-05T01:08:41.929Z,4.20
2022-08-05T01:14:00.232Z,4.10
2022-08-05T01:19:36.786Z,4.10
2022-08-05T01:25:10.774Z,4.20
2022-08-05T01:30:17.766Z,3.70
2022-08-05T01:35:50.635Z,3.90
2022-08-05T01:40:52.060Z,3.40
2022-08-05T01:45:57.004Z,4.00
2022-08-05T01:51:00.202Z,3.40
2022-08-05T01:58:12.245Z,4.10
2022-08-05T02:01:43.124Z,4.10
2022-08-05T02:06:46.147Z,4.10
2022-08-05T02:12:05.998Z,4.10
2022-08-05T02:18:27.583Z,4.30
2022-08-05T02:22:50.429Z,4.30
2022-08-05T02:27:58.883Z,4.30
2022-08-05T02:33:04.921Z,4.30
2022-08-05T02:38:10.511Z,4.10
2022-08-05T02:43:18.014Z,4.60
2022-08-05T02:48:29.030Z,4.00
2022-08-05T02:53:38.933Z,4.40
2022-08-05T02:58:45.084Z,4.60
2022-08-05T03:04:03.195Z,4.20
2022-08-05T03:09:08.083Z,4.30
2022-08-05T03:14:13.525Z,4.20
2022-08-05T03:19:17.180Z,3.80
2022-08-05T03:24:36.075Z,4.00
2022-08-05T03:29:45.343Z,4.20
2022-08-05T03:35:04.500Z,3.80
2022-08-05T03:40:11.792Z,3.70
2022-08-05T03:45:21.672Z,4.00
2022-08-05T03:50:34.439Z,4.20
2022-08-05T03:56:01.625Z,3.70
2022-08-05T04:01:11.190Z,3.90
2022-08-05T04:06:18.781Z,4.00
2022-08-05T04:11:23.583Z,3.90
2022-08-05T04:16:46.609Z,4.10
2022-08-05T04:22:10.081Z,4.00
2022-08-05T04:27:14.053Z,4.10
2022-08-05T04:32:30.665Z,4.20
2022-08-05T04:38:01.602Z,4.00
2022-08-05T04:42:56.838Z,5.60
2022-08-05T04:48:18.618Z,6.50
2022-08-05T04:53:33.576Z,4.90
2022-08-05T04:58:38.394Z,4.40
2022-08-05T05:03:41.825Z,4.70
2022-08-05T05:08:45.387Z,4.60
2022-08-05T05:13:52.849Z,4.40
2022-08-05T05:19:18.628Z,4.50
2022-08-05T05:24:21.832Z,4.30
2022-08-05T05:29:24.592Z,4.10
2022-08-05T05:34:47.265Z,5.00
2022-08-05T05:39:50.048Z,4.80
2022-08-05T05:44:52.894Z,4.50
2022-08-05T05:50:04.123Z,4.70
2022-08-05T05:55:13.684Z,4.60
2022-08-05T06:00:19.574Z,4.50
2022-08-05T06:05:22.306Z,4.50
2022-08-05T06:10:25.283Z,4.60
2022-08-05T06:16:30.901Z,4.40
2022-08-05T06:20:54.939Z,3.80
2022-08-05T06:26:13.208Z,4.20
2022-08-05T06:31:22.080Z,4.50
2022-08-05T06:36:26.011Z,3.90
2022-08-05T06:41:28.984Z,3.80
2022-08-05T06:46:37.598Z,4.20
2022-08-05T06:51:41.019Z,3.60
2022-08-05T06:56:54.858Z,3.80
2022-08-05T07:02:07.293Z,3.70
2022-08-05T07:07:10.033Z,3.90
2022-08-05T07:12:32.676Z,4.00
2022-08-05T07:17:58.332Z,4.20
2022-08-05T07:22:58.045Z,3.80
2022-08-05T07:28:05.925Z,3.80
2022-08-05T07:33:16.496Z,4.00
2022-08-05T07:38:32.924Z,3.80
2022-08-05T07:43:37.941Z,3.60
2022-08-05T07:49:02.903Z,3.60
2022-08-05T07:54:03.471Z,3.30
2022-08-05T07:59:08.549Z,3.80
2022-08-05T08:04:11.514Z,3.20
2022-08-05T08:09:14.955Z,3.20
2022-08-05T08:14:19.216Z,3.30
2022-08-05T08:20:10.365Z,3.30
2022-08-05T08:24:51.278Z,2.90
2022-08-05T08:30:04.134Z,3.20
2022-08-05T08:35:17.656Z,2.80
2022-08-05T08:40:22.726Z,2.90
2022-08-05T08:45:29.636Z,3.00
2022-08-05T08:51:22.446Z,3.20
2022-08-05T08:56:03.732Z,3.30
2022-08-05T09:01:11.061Z,3.60
2022-08-05T09:06:21.127Z,3.10
2022-08-05T09:11:52.824Z,3.10
2022-08-05T09:16:50.396Z,2.80
2022-08-05T09:22:23.171Z,2.90
2022-08-05T09:28:04.049Z,3.20
2022-08-05T09:33:02.482Z,3.10
2022-08-05T09:38:13.016Z,3.40
2022-08-05T09:43:41.453Z,2.90
2022-08-05T09:49:06.617Z,3.50
2022-08-05T09:54:09.360Z,3.00
2022-08-05T09:59:16.896Z,3.10
2022-08-05T10:04:29.347Z,2.80
2022-08-05T10:09:45.016Z,2.50
2022-08-05T10:14:48.225Z,2.90
2022-08-05T10:20:03.865Z,2.80
2022-08-05T10:25:14.238Z,2.70
2022-08-05T10:32:49.067Z,3.00
2022-08-05T10:35:44.349Z,3.10
2022-08-05T10:40:58.761Z,2.90
2022-08-05T10:46:07.575Z,2.50
2022-08-05T10:51:21.732Z,3.00
2022-08-05T10:56:30.763Z,2.90
2022-08-05T11:02:03.735Z,2.80
2022-08-05T11:07:11.428Z,3.10
2022-08-05T11:12:26.717Z,3.00
2022-08-05T11:17:57.778Z,2.60
2022-08-05T11:22:59.200Z,3.20
2022-08-05T11:28:17.271Z,2.70
2022-08-05T11:33:46.289Z,2.70
2022-08-05T11:38:57.753Z,2.80
2022-08-05T11:44:05.441Z,3.40
2022-08-05T11:49:15.990Z,2.90
2022-08-05T11:54:33.654Z,2.90
2022-08-05T11:59:49.804Z,2.90
2022-08-05T12:04:59.152Z,2.90
2022-08-05T12:10:09.210Z,3.30
2022-08-05T12:15:33.952Z,2.80
2022-08-05T12:20:41.602Z,3.20
2022-08-05T12:25:51.376Z,3.00
2022-08-05T12:30:57.993Z,3.30
2022-08-05T12:36:09.667Z,3.20
2022-08-05T12:41:14.890Z,3.10
2022-08-05T12:46:29.336Z,2.80
2022-08-05T12:52:13.717Z,3.10
2022-08-05T12:57:12.936Z,3.30
2022-08-05T13:02:30.636Z,3.10
2022-08-05T13:07:57.623Z,3.00
2022-08-05T13:12:58.440Z,3.00
2022-08-05T13:18:02.183Z,3.00
2022-08-05T13:23:07.369Z,2.90
2022-08-05T13:28:10.615Z,3.20
2022-08-05T13:33:14.419Z,3.20
2022-08-05T13:38:41.909Z,3.30
2022-08-05T13:43:54.366Z,3.30
2022-08-05T13:49:00.659Z,3.20
2022-08-05T13:54:11.819Z,3.20
2022-08-05T13:59:20.297Z,3.60
2022-08-05T14:04:49.542Z,3.20
2022-08-05T14:09:53.478Z,3.20
2022-08-05T14:14:56.278Z,3.50
2022-08-05T14:20:04.542Z,3.90
2022-08-05T14:25:19.082Z,3.30
2022-08-05T14:35:37.534Z,3.20
2022-08-05T14:40:54.364Z,3.70
2022-08-05T14:45:57.064Z,3.30
2022-08-05T14:50:59.740Z,3.70
2022-08-05T14:56:06.136Z,3.90
2022-08-05T15:01:15.510Z,3.40
2022-08-05T15:06:19.758Z,3.70
2022-08-05T15:11:52.264Z,3.40
2022-08-05T15:16:56.444Z,3.60
2022-08-05T15:22:01.433Z,3.40
2022-08-05T15:27:04.476Z,3.50
2022-08-05T15:32:12.199Z,3.60
2022-08-05T15:37:19.360Z,3.00
2022-08-05T15:42:55.761Z,3.50
2022-08-05T15:48:03.494Z,3.60
2022-08-05T15:53:06.663Z,3.90
2022-08-05T15:58:16.398Z,3.60
2022-08-05T16:03:19.899Z,3.60
2022-08-05T16:08:23.987Z,3.70
2022-08-05T16:13:34.919Z,3.70
2022-08-05T16:18:52.302Z,3.70
2022-08-05T16:23:58.043Z,3.30
2022-08-05T16:29:04.347Z,4.10
2022-08-05T16:34:11.151Z,3.60
2022-08-05T16:39:14.321Z,3.50
2022-08-05T16:44:18.344Z,4.00
2022-08-05T16:49:23.891Z,3.70
2022-08-05T16:54:31.928Z,3.60
2022-08-05T17:00:00.171Z,4.00
2022-08-05T17:04:58.774Z,4.00
2022-08-05T17:10:02.875Z,4.10
2022-08-05T17:15:07.572Z,4.70
2022-08-05T17:20:14.640Z,4.00
2022-08-05T17:25:34.116Z,4.10
2022-08-05T17:30:42.385Z,4.40
2022-08-05T17:36:07.608Z,4.10
2022-08-05T17:42:16.745Z,4.30
2022-08-05T17:46:35.788Z,4.60
2022-08-05T17:51:40.263Z,4.50
2022-08-05T17:56:44.734Z,5.00
2022-08-05T18:01:51.721Z,4.80
2022-08-05T18:06:54.467Z,4.40
2022-08-05T18:12:03.630Z,4.60
2022-08-05T18:17:07.007Z,4.90
2022-08-05T18:22:46.120Z,5.60
2022-08-05T18:27:52.898Z,5.20
2022-08-05T18:33:00.233Z,5.20
2022-08-05T18:38:03.970Z,5.10
2022-08-05T18:43:09.204Z,5.50
2022-08-05T18:48:30.753Z,5.60
2022-08-05T18:53:45.752Z,5.70
2022-08-05T18:58:54.681Z,5.80
2022-08-05T19:03:57.686Z,6.00
2022-08-05T19:09:00.368Z,7.20
2022-08-05T19:14:15.301Z,6.90
2022-08-05T19:19:27.170Z,6.70
2022-08-05T19:24:34.429Z,5.60
2022-08-05T19:29:39.926Z,6.10
2022-08-05T19:34:54.885Z,7.20
2022-08-05T19:39:59.338Z,7.10
2022-08-05T19:45:02.103Z,8.70
2022-08-05T19:50:10.532Z,9.60
2022-08-05T19:56:14.452Z,9.20
2022-08-05T20:00:37.866Z,8.50
2022-08-05T20:05:49.963Z,8.40
2022-08-05T20:10:53.943Z,8.40
2022-08-05T20:15:57.655Z,7.60
2022-08-05T20:21:00.757Z,6.90
2022-08-05T20:26:04.352Z,6.80
2022-08-05T20:31:08.284Z,7.00
2022-08-05T20:36:11.731Z,6.70
2022-08-05T20:41:24.259Z,6.70
2022-08-05T20:46:30.392Z,7.20
2022-08-05T20:51:34.598Z,6.90
2022-08-05T20:56:41.696Z,6.90
2022-08-05T21:01:45.410Z,7.90
2022-08-05T21:06:48.687Z,8.70
2022-08-05T21:17:14.714Z,9.60
2022-08-05T21:22:23.053Z,8.30
2022-08-05T21:27:27.448Z,8.10
2022-08-05T21:32:30.760Z,7.90
2022-08-05T21:37:34.958Z,8.20
2022-08-05T21:42:45.487Z,7.70
2022-08-05T21:47:55.717Z,7.90
2022-08-05T21:53:04.876Z,7.80
2022-08-05T21:58:20.200Z,7.90
2022-08-05T22:03:49.064Z,6.70
2022-08-05T22:08:52.577Z,6.20
2022-08-05T22:14:19.621Z,5.80
2022-08-05T22:19:57.222Z,5.90
2022-08-05T22:25:01.701Z,5.10
2022-08-05T22:30:05.162Z,5.10
2022-08-05T22:35:08.785Z,4.90
2022-08-05T22:40:12.182Z,5.30
2022-08-05T22:45:19.674Z,5.00
2022-08-05T22:50:26.727Z,5.20
2022-08-05T22:55:37.226Z,5.30
2022-08-05T23:00:53.220Z,4.60
2022-08-05T23:06:00.161Z,4.80
2022-08-05T23:11:04.086Z,4.60
2022-08-05T23:16:07.205Z,4.70
2022-08-05T23:21:11.225Z,5.10
2022-08-05T23:26:20.014Z,4.70
2022-08-05T23:31:24.440Z,4.30
2022-08-05T23:36:28.292Z,4.30
2022-08-05T23:41:34.248Z,4.70
2022-08-05T23:46:40.219Z,4.00
2022-08-05T23:52:03.409Z,4.50
2022-08-05T23:57:08.677Z,4.80
